Time;durP1;ratioP1;P1;durP2;ratioP2;P2;SDS_P1;SDS_P2;PMS_P1;PMS_P2;Temp;Humidity;BMP_temperature;BMP_pressure;BME280_temperature;BME280_humidity;BME280_pressure;Samples;Min_cycle;Max_cycle;Signal;HPM_P1;HPM_P2
2024/02/06 00:00:02;;;;;;;4.72;2.17;;;11.60;83.90;;;;;;5031129;28;20102;-63
2024/02/06 00:02:29;;;;;;;5.55;1.83;;;11.50;83.90;;;;;;5032528;28;20491;-63
2024/02/06 00:04:54;;;;;;;3.05;1.80;;;11.60;83.90;;;;;;5031068;28;20026;-61
2024/02/06 00:07:21;;;;;;;6.88;2.08;;;11.60;83.80;;;;;;5030096;28;20038;-61
2024/02/06 00:09:47;;;;;;;4.55;2.22;;;11.60;83.70;;;;;;5028653;28;20033;-63
2024/02/06 00:12:13;;;;;;;7.90;2.45;;;11.60;83.60;;;;;;5030136;28;20044;-61
2024/02/06 00:14:39;;;;;;;4.35;2.25;;;11.60;83.70;;;;;;5032921;28;20032;-63
2024/02/06 00:17:06;;;;;;;3.15;2.55;;;11.50;83.80;;;;;;5027928;28;20151;-63
2024/02/06 00:19:32;;;;;;;4.78;2.75;;;11.50;83.80;;;;;;5034147;28;20033;-63
2024/02/06 00:21:58;;;;;;;5.35;2.80;;;11.50;83.90;;;;;;5026500;28;20040;-63
2024/02/06 00:24:24;;;;;;;11.43;2.70;;;11.40;84.10;;;;;;5030285;28;20057;-63
2024/02/06 00:26:50;;;;;;;5.75;3.13;;;11.40;84.30;;;;;;5024474;28;20037;-63
2024/02/06 00:29:16;;;;;;;5.03;2.55;;;11.40;84.40;;;;;;5030649;28;20038;-61
2024/02/06 00:31:42;;;;;;;5.13;2.42;;;11.40;84.40;;;;;;5031848;28;20035;-61
2024/02/06 00:34:08;;;;;;;3.53;2.10;;;11.40;84.40;;;;;;5029457;28;20496;-61
2024/02/06 00:36:34;;;;;;;5.57;2.42;;;11.40;84.40;;;;;;5027694;28;20159;-63
2024/02/06 00:39:00;;;;;;;5.45;2.05;;;11.40;84.30;;;;;;5036887;28;20029;-63
2024/02/06 00:41:26;;;;;;;5.90;2.17;;;11.40;84.40;;;;;;5031198;28;20030;-63
2024/02/06 00:43:52;;;;;;;4.57;2.33;;;11.50;84.40;;;;;;5023256;28;20378;-63
2024/02/06 00:46:18;;;;;;;2.92;2.05;;;11.50;84.40;;;;;;5026321;28;20060;-63
2024/02/06 00:48:44;;;;;;;3.05;1.98;;;11.50;84.30;;;;;;5022741;28;20369;-63
2024/02/06 00:51:10;;;;;;;5.57;2.75;;;11.50;84.40;;;;;;5032369;28;20614;-63
2024/02/06 00:53:36;;;;;;;7.10;2.85;;;11.50;84.30;;;;;;5033846;28;20484;-63
2024/02/06 00:56:05;;;;;;;8.07;3.55;;;11.50;84.50;;;;;;5026913;28;20029;-62
2024/02/06 00:58:32;;;;;;;3.80;2.92;;;11.40;84.50;;;;;;5034914;28;20029;-62
2024/02/06 01:00:59;;;;;;;4.20;3.00;;;11.40;84.60;;;;;;5037825;28;20512;-61
2024/02/06 01:03:25;;;;;;;5.47;2.13;;;11.40;84.60;;;;;;5038072;28;20029;-61
2024/02/06 01:05:51;;;;;;;8.02;3.05;;;11.40;84.60;;;;;;5034680;28;20037;-61
2024/02/06 01:08:17;;;;;;;4.38;2.60;;;11.50;84.60;;;;;;5034840;28;20287;-63
2024/02/06 01:10:52;;;;;;;6.07;3.60;;;11.50;84.60;;;;;;5062142;28;20402;-61
2024/02/06 01:13:18;;;;;;;3.85;2.67;;;11.50;84.50;;;;;;5046875;28;20056;-61
2024/02/06 01:15:44;;;;;;;5.43;3.70;;;11.50;84.60;;;;;;5049248;28;20056;-61
2024/02/06 01:18:10;;;;;;;3.40;2.38;;;11.40;84.60;;;;;;5045684;28;20465;-63
2024/02/06 01:20:36;;;;;;;7.72;2.58;;;11.40;84.70;;;;;;5043687;28;20048;-61
2024/02/06 01:23:02;;;;;;;5.97;2.97;;;11.40;84.60;;;;;;5051137;28;20037;-61
2024/02/06 01:25:30;;;;;;;8.73;4.00;;;11.50;84.70;;;;;;5044918;28;20448;-61
2024/02/06 01:27:56;;;;;;;6.38;2.95;;;11.40;84.60;;;;;;5045949;28;20091;-61
2024/02/06 01:30:22;;;;;;;5.75;3.28;;;11.40;84.70;;;;;;5043882;28;20037;-61
2024/02/06 01:32:48;;;;;;;4.20;2.25;;;11.40;84.80;;;;;;5045319;28;20033;-62
2024/02/06 01:35:14;;;;;;;4.38;2.90;;;11.40;84.70;;;;;;5042580;28;20025;-62
2024/02/06 01:37:39;;;;;;;4.05;2.65;;;11.40;84.60;;;;;;5046678;28;20095;-63
2024/02/06 01:40:07;;;;;;;5.30;2.85;;;11.40;84.70;;;;;;5044524;28;20427;-63
2024/02/06 01:42:33;;;;;;;2.40;1.90;;;11.40;84.70;;;;;;5049940;28;20021;-61
2024/02/06 01:44:59;;;;;;;5.68;3.30;;;11.50;84.70;;;;;;5047826;28;20032;-62
2024/02/06 01:47:27;;;;;;;4.07;2.45;;;11.50;84.50;;;;;;5049343;28;20364;-63
2024/02/06 01:49:55;;;;;;;7.70;2.55;;;11.50;84.40;;;;;;5040945;28;20029;-63
2024/02/06 01:52:22;;;;;;;8.23;3.20;;;11.50;84.40;;;;;;5037867;28;20091;-62
2024/02/06 01:54:48;;;;;;;9.10;2.85;;;11.50;84.40;;;;;;5043335;28;20025;-61
2024/02/06 01:57:14;;;;;;;4.18;2.63;;;11.50;84.40;;;;;;5044400;28;20076;-63
2024/02/06 01:59:40;;;;;;;7.22;2.95;;;11.50;84.50;;;;;;5044756;28;20451;-63
2024/02/06 02:02:07;;;;;;;7.78;3.65;;;11.50;84.50;;;;;;5039781;28;20033;-63
2024/02/06 02:04:34;;;;;;;6.65;2.28;;;11.50;84.40;;;;;;5044237;28;20095;-63
2024/02/06 02:07:00;;;;;;;7.22;3.28;;;11.60;84.30;;;;;;5044808;28;20415;-63
2024/02/06 02:09:26;;;;;;;10.15;2.00;;;11.60;84.40;;;;;;5043156;28;20049;-63
2024/02/06 02:11:52;;;;;;;5.63;2.58;;;11.50;84.30;;;;;;5042712;28;20047;-63
2024/02/06 02:14:18;;;;;;;9.15;2.80;;;11.60;84.40;;;;;;5039390;28;20029;-63
2024/02/06 02:16:44;;;;;;;5.75;2.92;;;11.60;84.30;;;;;;5044782;28;20506;-62
2024/02/06 02:19:10;;;;;;;5.75;2.33;;;11.60;84.30;;;;;;5043773;28;20232;-63
2024/02/06 02:21:38;;;;;;;3.72;2.30;;;11.60;84.20;;;;;;5036777;28;20120;-61
2024/02/06 02:24:04;;;;;;;8.68;2.70;;;11.60;84.20;;;;;;5032755;28;20026;-62
2024/02/06 02:26:31;;;;;;;3.30;1.63;;;11.60;84.10;;;;;;5022579;28;20116;-61
2024/02/06 02:28:58;;;;;;;3.15;2.15;;;11.60;84.00;;;;;;5035329;28;20125;-63
2024/02/06 02:31:25;;;;;;;7.70;2.30;;;11.60;84.00;;;;;;5030123;28;20041;-63
2024/02/06 02:33:53;;;;;;;6.10;2.47;;;11.60;83.90;;;;;;5033011;28;20030;-63
2024/02/06 02:36:19;;;;;;;3.58;1.92;;;11.60;83.90;;;;;;5030228;28;20556;-64
2024/02/06 02:38:46;;;;;;;4.85;2.88;;;11.60;83.90;;;;;;5028540;28;20112;-64
2024/02/06 02:41:11;;;;;;;4.13;1.58;;;11.60;83.90;;;;;;5029188;28;20403;-63
2024/02/06 02:43:37;;;;;;;3.38;2.08;;;11.50;83.90;;;;;;5030130;28;20328;-63
2024/02/06 02:46:03;;;;;;;5.95;2.17;;;11.60;83.90;;;;;;5026495;28;20057;-63
2024/02/06 02:48:29;;;;;;;5.88;1.67;;;11.60;83.80;;;;;;5031080;28;20049;-63
2024/02/06 02:50:55;;;;;;;4.05;1.50;;;11.60;83.70;;;;;;5023603;28;20053;-64
2024/02/06 02:53:21;;;;;;;4.80;2.13;;;11.60;83.70;;;;;;5028309;28;20032;-63
2024/02/06 02:55:47;;;;;;;3.53;2.05;;;11.60;83.50;;;;;;5026763;28;20037;-63
2024/02/06 02:58:13;;;;;;;12.20;1.95;;;11.60;83.50;;;;;;5031185;28;20079;-62
2024/02/06 03:00:39;;;;;;;4.65;2.00;;;11.70;83.40;;;;;;5030719;28;20032;-64
2024/02/06 03:03:06;;;;;;;6.30;2.70;;;11.70;83.40;;;;;;5026112;28;20034;-63
2024/02/06 03:05:32;;;;;;;3.22;1.77;;;11.70;83.40;;;;;;5036011;28;20075;-63
2024/02/06 03:07:58;;;;;;;7.32;1.55;;;11.70;83.30;;;;;;5030772;28;20037;-64
2024/02/06 03:10:23;;;;;;;4.20;1.55;;;11.70;83.40;;;;;;5028841;28;20390;-63
2024/02/06 03:12:49;;;;;;;4.32;2.13;;;11.70;83.30;;;;;;5025454;28;20392;-64
2024/02/06 03:15:16;;;;;;;11.20;1.88;;;11.80;83.40;;;;;;5030958;28;20021;-63
2024/02/06 03:17:42;;;;;;;4.93;2.03;;;11.80;83.30;;;;;;5029228;28;20049;-64
2024/02/06 03:20:09;;;;;;;6.20;1.80;;;11.80;83.20;;;;;;5028946;28;20072;-64
2024/02/06 03:22:35;;;;;;;4.50;1.67;;;11.80;83.20;;;;;;5029516;28;20092;-64
2024/02/06 03:25:01;;;;;;;10.70;1.92;;;11.80;83.30;;;;;;5023024;28;20033;-63
2024/02/06 03:27:27;;;;;;;2.40;1.63;;;11.80;83.40;;;;;;5029824;28;20544;-63
2024/02/06 03:29:53;;;;;;;8.65;2.42;;;11.80;83.30;;;;;;5028972;28;20152;-63
2024/02/06 03:32:19;;;;;;;9.10;2.40;;;11.80;83.30;;;;;;5028473;28;20551;-64
2024/02/06 03:34:45;;;;;;;2.53;1.55;;;11.80;83.40;;;;;;5029256;28;20029;-63
2024/02/06 03:37:13;;;;;;;6.47;2.03;;;11.80;83.30;;;;;;5029284;28;20063;-63
2024/02/06 03:39:39;;;;;;;2.72;1.60;;;11.80;83.30;;;;;;5030456;28;20380;-65
2024/02/06 03:42:05;;;;;;;5.22;1.77;;;11.80;83.30;;;;;;5018822;28;20115;-68
2024/02/06 03:44:31;;;;;;;5.93;1.98;;;11.80;83.30;;;;;;5026378;28;20029;-68
2024/02/06 03:46:57;;;;;;;6.00;1.40;;;11.80;83.40;;;;;;5031420;28;20037;-65
2024/02/06 03:49:23;;;;;;;4.70;1.50;;;11.80;83.40;;;;;;5026834;28;20041;-65
2024/02/06 03:51:49;;;;;;;3.28;1.77;;;11.90;83.60;;;;;;5032818;28;20033;-67
2024/02/06 03:54:15;;;;;;;6.88;2.38;;;11.90;83.70;;;;;;5028638;28;20489;-62
2024/02/06 03:56:41;;;;;;;6.43;2.00;;;11.90;83.70;;;;;;5029057;28;20052;-66
2024/02/06 03:59:06;;;;;;;6.93;2.95;;;11.90;83.90;;;;;;5028498;28;20034;-67
2024/02/06 04:01:32;;;;;;;2.92;1.80;;;11.80;84.70;;;;;;5025383;28;20041;-63
2024/02/06 04:03:58;;;;;;;4.93;2.15;;;11.80;84.30;;;;;;5021544;28;20036;-61
2024/02/06 04:06:24;;;;;;;7.43;2.42;;;11.80;84.50;;;;;;5029400;28;20420;-63
2024/02/06 04:08:50;;;;;;;3.35;2.17;;;11.70;84.60;;;;;;5021199;28;20168;-63
2024/02/06 04:11:16;;;;;;;4.97;2.15;;;11.70;84.90;;;;;;5028206;28;20560;-62
2024/02/06 04:13:42;;;;;;;4.93;2.47;;;11.70;85.10;;;;;;5026409;28;20099;-61
2024/02/06 04:16:08;;;;;;;4.90;2.47;;;11.60;85.30;;;;;;5030446;28;20096;-61
2024/02/06 04:18:36;;;;;;;3.80;1.90;;;11.60;85.50;;;;;;5024252;28;20053;-62
2024/02/06 04:21:02;;;;;;;3.17;2.25;;;11.60;85.80;;;;;;5030764;28;20025;-62
2024/02/06 04:23:28;;;;;;;5.72;2.90;;;11.50;85.90;;;;;;5036062;28;20033;-62
2024/02/06 04:25:54;;;;;;;4.05;2.22;;;11.50;85.90;;;;;;5030917;28;20052;-62
2024/02/06 04:28:20;;;;;;;7.85;2.83;;;11.50;86.00;;;;;;5035840;28;20469;-62
2024/02/06 04:30:46;;;;;;;6.30;2.03;;;11.50;86.00;;;;;;5029948;28;20619;-63
2024/02/06 04:33:13;;;;;;;4.55;2.67;;;11.50;86.00;;;;;;5036434;28;20025;-62
2024/02/06 04:35:39;;;;;;;2.47;2.08;;;11.50;86.00;;;;;;5021911;28;20034;-62
2024/02/06 04:38:05;;;;;;;9.95;2.63;;;11.50;86.00;;;;;;5032214;28;20021;-62
2024/02/06 04:40:31;;;;;;;3.85;1.92;;;11.60;86.00;;;;;;5030251;28;20029;-62
2024/02/06 04:42:57;;;;;;;6.72;3.03;;;11.60;86.00;;;;;;5024449;28;20392;-63
2024/02/06 04:45:23;;;;;;;5.00;3.42;;;11.60;86.00;;;;;;5028608;28;20029;-63
2024/02/06 04:47:50;;;;;;;3.55;2.50;;;11.50;86.10;;;;;;5024770;28;20115;-62
2024/02/06 04:50:19;;;;;;;4.68;2.63;;;11.50;86.20;;;;;;5034339;28;20033;-62
2024/02/06 04:52:45;;;;;;;7.05;2.45;;;11.50;86.40;;;;;;5028645;28;20029;-62
2024/02/06 04:55:11;;;;;;;4.95;2.50;;;11.50;86.50;;;;;;5023336;28;20524;-62
2024/02/06 04:57:38;;;;;;;5.00;2.60;;;11.50;86.60;;;;;;5030531;28;20030;-61
2024/02/06 05:00:10;;;;;;;7.07;2.83;;;11.40;86.70;;;;;;5029999;28;20463;-62
2024/02/06 05:02:36;;;;;;;;;;;11.50;86.80;;;;;;5028144;28;20033;-62
2024/02/06 05:05:03;;;;;;;12.73;2.30;;;11.50;86.90;;;;;;5026274;28;20011;-61
2024/02/06 05:07:29;;;;;;;2.78;2.22;;;11.40;87.00;;;;;;5021468;28;20044;-63
2024/02/06 05:09:55;;;;;;;6.65;2.15;;;11.50;86.80;;;;;;5037191;28;20041;-63
2024/02/06 05:12:22;;;;;;;3.92;2.40;;;11.50;86.90;;;;;;5032628;28;20433;-61
2024/02/06 05:14:48;;;;;;;11.88;2.80;;;11.50;86.90;;;;;;5036799;28;20041;-61
2024/02/06 05:17:14;;;;;;;2.55;1.92;;;11.50;86.90;;;;;;5030183;28;20049;-61
2024/02/06 05:19:41;;;;;;;4.80;2.53;;;11.50;86.90;;;;;;5028586;28;20461;-62
2024/02/06 05:22:08;;;;;;;7.60;2.90;;;11.50;87.00;;;;;;5028221;28;20049;-63
2024/02/06 05:24:34;;;;;;;6.30;2.13;;;11.50;87.20;;;;;;5028256;28;20030;-63
2024/02/06 05:27:03;;;;;;;4.88;2.90;;;11.50;87.30;;;;;;5028595;28;20500;-63
2024/02/06 05:29:30;;;;;;;2.22;1.77;;;11.50;87.40;;;;;;5032375;28;20518;-63
2024/02/06 05:31:56;;;;;;;3.60;2.55;;;11.50;87.30;;;;;;5025901;28;20044;-63
2024/02/06 05:34:23;;;;;;;3.63;2.10;;;11.50;87.50;;;;;;5028682;28;20312;-63
2024/02/06 05:36:49;;;;;;;11.52;2.13;;;11.50;87.50;;;;;;5028690;28;20033;-63
2024/02/06 05:39:15;;;;;;;13.18;2.85;;;11.50;87.50;;;;;;5062898;28;20033;-63
2024/02/06 05:41:41;;;;;;;3.92;2.30;;;11.50;87.50;;;;;;5028926;28;20475;-63
2024/02/06 05:44:07;;;;;;;6.53;2.40;;;11.50;87.50;;;;;;5031301;28;20031;-63
2024/02/06 05:46:33;;;;;;;14.68;3.15;;;11.50;87.50;;;;;;5028688;28;20121;-63
2024/02/06 05:48:59;;;;;;;4.60;2.92;;;11.40;87.70;;;;;;5036177;28;20460;-63
2024/02/06 05:51:25;;;;;;;4.65;1.85;;;11.40;87.80;;;;;;5032492;28;20040;-63
2024/02/06 05:53:51;;;;;;;6.60;2.88;;;11.50;87.80;;;;;;5044097;28;20112;-63
2024/02/06 05:56:17;;;;;;;2.80;2.10;;;11.50;87.80;;;;;;5033356;28;20459;-63
2024/02/06 05:58:43;;;;;;;18.33;3.08;;;11.50;87.80;;;;;;5032193;28;20105;-63
2024/02/06 06:01:09;;;;;;;8.43;3.10;;;11.50;87.70;;;;;;5036910;28;20108;-63
2024/02/06 06:03:35;;;;;;;7.07;3.25;;;11.50;87.80;;;;;;5034999;28;20026;-62
2024/02/06 06:06:01;;;;;;;6.10;2.25;;;11.50;87.90;;;;;;5030033;28;20116;-62
2024/02/06 06:08:26;;;;;;;7.95;3.25;;;11.40;88.00;;;;;;5037871;28;20113;-63
2024/02/06 06:10:52;;;;;;;5.80;2.97;;;11.40;88.20;;;;;;5033537;28;20054;-63
2024/02/06 06:13:18;;;;;;;6.22;3.55;;;11.40;88.40;;;;;;5064865;28;20354;-62
2024/02/06 06:15:45;;;;;;;10.73;3.35;;;11.40;89.20;;;;;;5037928;28;20083;-62
2024/02/06 06:18:11;;;;;;;4.38;2.95;;;11.40;88.70;;;;;;5034592;28;20033;-63
2024/02/06 06:20:37;;;;;;;6.00;2.65;;;11.40;88.70;;;;;;5030859;28;20449;-63
2024/02/06 06:23:03;;;;;;;4.55;2.08;;;11.40;88.70;;;;;;5030888;28;20041;-62
2024/02/06 06:25:30;;;;;;;4.85;2.67;;;11.40;88.70;;;;;;5023169;28;20021;-63
2024/02/06 06:27:55;;;;;;;13.35;4.45;;;11.40;88.80;;;;;;5022482;28;20030;-62
2024/02/06 06:30:23;;;;;;;4.15;2.08;;;11.40;88.90;;;;;;5029792;28;20036;-62
2024/02/06 06:32:48;;;;;;;6.82;2.75;;;11.40;88.90;;;;;;5032371;28;20083;-62
2024/02/06 06:35:14;;;;;;;4.05;2.40;;;11.30;88.90;;;;;;5032510;28;20041;-61
2024/02/06 06:37:40;;;;;;;8.98;2.00;;;11.30;89.00;;;;;;5035254;28;20036;-62
2024/02/06 06:40:07;;;;;;;4.35;2.17;;;11.30;89.00;;;;;;5028062;28;20432;-61
2024/02/06 06:42:34;;;;;;;5.28;2.30;;;11.40;89.50;;;;;;5030045;28;20025;-62
2024/02/06 06:44:59;;;;;;;4.82;2.63;;;11.40;89.00;;;;;;5031169;28;20029;-62
2024/02/06 06:47:25;;;;;;;4.70;2.50;;;11.40;89.00;;;;;;5033541;28;20029;-62
2024/02/06 06:49:51;;;;;;;10.13;2.10;;;11.40;89.00;;;;;;5028500;28;20033;-62
2024/02/06 06:52:16;;;;;;;7.07;2.65;;;11.40;89.00;;;;;;5030541;28;20034;-62
2024/02/06 06:54:42;;;;;;;6.10;2.33;;;11.40;89.10;;;;;;5033795;28;20112;-62
2024/02/06 06:57:08;;;;;;;5.15;2.67;;;11.40;89.30;;;;;;5034556;28;20084;-62
2024/02/06 06:59:33;;;;;;;11.30;3.03;;;11.40;89.30;;;;;;5020840;28;20037;-62
2024/02/06 07:01:59;;;;;;;3.35;2.10;;;11.40;89.30;;;;;;5027851;28;20037;-62
2024/02/06 07:04:29;;;;;;;13.50;3.92;;;11.40;89.30;;;;;;5029299;28;20116;-62
2024/02/06 07:06:55;;;;;;;6.65;3.75;;;11.40;89.20;;;;;;5028996;28;20033;-62
2024/02/06 07:09:22;;;;;;;4.43;2.60;;;11.40;89.30;;;;;;5031975;28;20112;-62
2024/02/06 07:11:48;;;;;;;8.45;2.10;;;11.40;89.30;;;;;;5029774;28;20128;-61
2024/02/06 07:14:14;;;;;;;13.70;2.47;;;11.40;89.30;;;;;;5029759;28;20654;-62
2024/02/06 07:16:40;;;;;;;5.43;2.72;;;11.40;89.40;;;;;;5028917;28;20100;-63
2024/02/06 07:19:06;;;;;;;3.65;2.05;;;11.40;89.40;;;;;;5030406;28;20405;-63
2024/02/06 07:21:32;;;;;;;9.80;2.63;;;11.40;89.50;;;;;;5029776;28;20017;-62
2024/02/06 07:23:58;;;;;;;6.00;2.35;;;11.40;89.60;;;;;;5029694;28;20038;-62
2024/02/06 07:26:24;;;;;;;6.70;1.95;;;11.40;89.50;;;;;;5028449;28;20034;-62
2024/02/06 07:28:49;;;;;;;5.10;2.22;;;11.40;89.50;;;;;;5032058;28;20029;-62
2024/02/06 07:31:15;;;;;;;5.25;1.90;;;11.40;89.50;;;;;;5025531;28;20033;-62
2024/02/06 07:33:41;;;;;;;4.68;1.92;;;11.40;89.50;;;;;;5035399;28;20404;-62
2024/02/06 07:36:07;;;;;;;4.43;2.28;;;11.50;89.50;;;;;;5024505;28;20048;-62
2024/02/06 07:38:33;;;;;;;3.80;2.30;;;11.50;89.40;;;;;;5033221;28;20400;-62
2024/02/06 07:40:59;;;;;;;3.88;2.45;;;11.50;89.40;;;;;;5027446;28;20040;-62
2024/02/06 07:43:28;;;;;;;8.15;2.33;;;11.50;89.50;;;;;;5030574;28;20552;-62
2024/02/06 07:45:54;;;;;;;7.13;2.50;;;11.50;89.50;;;;;;5027421;28;20035;-62
2024/02/06 07:48:21;;;;;;;7.97;2.95;;;11.50;89.60;;;;;;5037181;28;20025;-62
2024/02/06 07:50:48;;;;;;;4.13;2.35;;;11.50;89.70;;;;;;5029285;28;20034;-62
2024/02/06 07:53:14;;;;;;;5.30;2.47;;;11.40;89.60;;;;;;5032824;28;20057;-62
2024/02/06 07:55:40;;;;;;;2.35;1.73;;;11.50;89.70;;;;;;5038069;28;20021;-62
2024/02/06 07:58:06;;;;;;;4.65;1.75;;;11.50;89.70;;;;;;5041947;28;20052;-61
2024/02/06 08:00:32;;;;;;;4.72;2.10;;;11.40;89.70;;;;;;5035246;28;20401;-61
2024/02/06 08:02:58;;;;;;;6.28;1.83;;;11.40;89.70;;;;;;5029448;28;20036;-61
2024/02/06 08:05:24;;;;;;;3.03;2.17;;;11.40;89.70;;;;;;5029254;28;20511;-62
2024/02/06 08:07:50;;;;;;;14.73;3.63;;;11.40;89.80;;;;;;5019646;28;20057;-62
2024/02/06 08:10:16;;;;;;;4.70;2.47;;;11.40;89.90;;;;;;5026671;28;20037;-61
2024/02/06 08:12:41;;;;;;;3.53;2.25;;;11.40;89.90;;;;;;5026863;28;20041;-61
2024/02/06 08:15:08;;;;;;;7.05;2.25;;;11.40;89.90;;;;;;5028646;28;20436;-62
2024/02/06 08:17:36;;;;;;;9.00;2.95;;;11.40;89.90;;;;;;5028621;28;20017;-61
2024/02/06 08:20:03;;;;;;;10.52;2.63;;;11.40;90.00;;;;;;5026896;28;20447;-61
2024/02/06 08:22:31;;;;;;;5.15;2.58;;;11.30;90.00;;;;;;5026240;28;20044;-63
2024/02/06 08:24:57;;;;;;;6.13;2.08;;;11.30;90.30;;;;;;5020151;28;20160;-63
2024/02/06 08:27:22;;;;;;;7.60;2.25;;;11.40;90.30;;;;;;5013493;28;20044;-63
2024/02/06 08:29:48;;;;;;;3.55;2.03;;;11.40;90.10;;;;;;5013178;28;20041;-63
2024/02/06 08:32:14;;;;;;;3.95;2.17;;;11.40;90.00;;;;;;5021801;28;20049;-63
2024/02/06 08:34:40;;;;;;;8.60;4.32;;;11.40;90.00;;;;;;5016336;28;20025;-63
2024/02/06 08:37:06;;;;;;;2.55;1.63;;;11.40;90.00;;;;;;5025129;28;20037;-63
2024/02/06 08:39:31;;;;;;;2.40;1.80;;;11.40;90.00;;;;;;5030709;28;20036;-63
2024/02/06 08:41:57;;;;;;;4.20;1.75;;;11.40;90.00;;;;;;5019461;28;20173;-64
2024/02/06 08:44:25;;;;;;;6.35;2.38;;;11.50;90.00;;;;;;5024423;28;20493;-63
2024/02/06 08:46:51;;;;;;;4.82;2.08;;;11.50;90.00;;;;;;5026411;28;20563;-62
2024/02/06 08:49:17;;;;;;;4.82;2.20;;;11.50;90.00;;;;;;5020166;28;20677;-67
2024/02/06 08:51:43;;;;;;;3.17;1.65;;;11.40;90.00;;;;;;5027707;28;20029;-65
2024/02/06 08:54:09;;;;;;;3.67;1.67;;;11.50;90.00;;;;;;5029172;28;20136;-64
2024/02/06 08:56:35;;;;;;;10.40;2.10;;;11.50;90.00;;;;;;5020459;28;20056;-65
2024/02/06 08:59:01;;;;;;;4.88;2.22;;;11.50;90.00;;;;;;5026696;28;20504;-65
2024/02/06 09:01:27;;;;;;;5.47;2.38;;;11.50;90.00;;;;;;5025705;28;20032;-64
2024/02/06 09:03:53;;;;;;;8.70;3.53;;;11.50;90.00;;;;;;5017378;28;20037;-64
2024/02/06 09:06:19;;;;;;;2.95;2.08;;;11.50;90.00;;;;;;5026700;28;20515;-61
2024/02/06 09:08:45;;;;;;;8.07;1.80;;;11.50;90.00;;;;;;5025869;28;20532;-62
2024/02/06 09:11:11;;;;;;;5.40;2.63;;;11.60;90.00;;;;;;5021245;28;20045;-62
2024/02/06 09:13:37;;;;;;;7.53;2.97;;;11.60;89.90;;;;;;5022983;28;20052;-63
2024/02/06 09:16:03;;;;;;;7.93;2.28;;;11.60;89.90;;;;;;5014254;28;20972;-63
2024/02/06 09:18:29;;;;;;;14.85;3.45;;;11.60;90.00;;;;;;5021352;28;20032;-63
2024/02/06 09:20:55;;;;;;;3.67;1.52;;;11.60;90.00;;;;;;5024453;28;20017;-62
2024/02/06 09:23:21;;;;;;;11.27;3.10;;;11.60;89.90;;;;;;5018248;28;20088;-62
2024/02/06 09:25:46;;;;;;;9.77;2.53;;;11.70;90.00;;;;;;5025734;28;20544;-62
2024/02/06 09:28:12;;;;;;;11.50;2.42;;;11.70;89.90;;;;;;5027380;28;20034;-62
2024/02/06 09:30:39;;;;;;;10.70;3.47;;;11.70;89.90;;;;;;5016055;28;20521;-62
2024/02/06 09:33:06;;;;;;;3.38;2.17;;;11.70;89.90;;;;;;5017264;28;20033;-64
2024/02/06 09:35:32;;;;;;;5.50;2.72;;;11.80;89.90;;;;;;5021001;28;20528;-64
2024/02/06 09:37:57;;;;;;;3.35;1.90;;;11.80;89.80;;;;;;5022620;28;20029;-64
2024/02/06 09:40:24;;;;;;;5.70;1.65;;;11.90;89.70;;;;;;5028185;28;20180;-64
2024/02/06 09:42:51;;;;;;;5.93;1.98;;;11.90;89.60;;;;;;5033181;28;20564;-65
2024/02/06 09:45:17;;;;;;;3.47;1.77;;;11.90;89.50;;;;;;5024520;28;20236;-64
2024/02/06 09:47:43;;;;;;;9.95;2.30;;;12.00;89.30;;;;;;5023458;28;20048;-64
2024/02/06 09:50:09;;;;;;;5.70;2.05;;;12.00;89.10;;;;;;5024319;28;20481;-64
2024/02/06 09:52:36;;;;;;;5.75;2.05;;;12.00;88.90;;;;;;5020075;28;20029;-64
2024/02/06 09:55:10;;;;;;;8.30;2.55;;;12.10;88.60;;;;;;5027870;28;20029;-65
2024/02/06 09:57:38;;;;;;;3.50;1.92;;;12.20;88.50;;;;;;5028343;28;20048;-65
2024/02/06 10:00:09;;;;;;;8.18;1.35;;;12.20;87.80;;;;;;5028882;28;20080;-65
2024/02/06 10:02:39;;;;;;;5.18;1.13;;;12.30;87.80;;;;;;5030401;28;20476;-63
2024/02/06 10:05:11;;;;;;;2.00;1.48;;;12.30;87.50;;;;;;5028539;28;20022;-65
2024/02/06 10:07:37;;;;;;;9.82;1.60;;;12.40;87.00;;;;;;5060030;28;20511;-66
2024/02/06 10:10:04;;;;;;;1.83;1.67;;;12.40;86.90;;;;;;5027743;28;20499;-65
2024/02/06 10:12:30;;;;;;;7.15;1.45;;;12.50;86.80;;;;;;5026151;28;20508;-67
2024/02/06 10:14:56;;;;;;;11.60;2.30;;;12.60;86.70;;;;;;5024655;28;20053;-67
2024/02/06 10:17:21;;;;;;;5.72;1.75;;;12.60;86.40;;;;;;5025208;28;20462;-67
2024/02/06 10:19:47;;;;;;;5.15;1.77;;;12.70;86.30;;;;;;5041598;28;20040;-66
2024/02/06 10:22:13;;;;;;;2.92;1.00;;;12.70;86.60;;;;;;5023518;28;20059;-65
2024/02/06 10:24:40;;;;;;;2.03;1.60;;;12.70;86.10;;;;;;5028827;28;20501;-66
2024/02/06 10:27:06;;;;;;;2.35;1.60;;;12.80;86.00;;;;;;5026763;28;20372;-63
2024/02/06 10:29:34;;;;;;;3.35;2.00;;;12.80;86.00;;;;;;5021573;28;20030;-62
2024/02/06 10:32:11;;;;;;;4.13;1.55;;;12.80;85.90;;;;;;5028872;28;20392;-62
2024/02/06 10:34:37;;;;;;;3.80;1.98;;;12.80;85.80;;;;;;5028145;28;20025;-62
2024/02/06 10:37:03;;;;;;;5.05;1.98;;;12.80;86.00;;;;;;5040480;28;20060;-62
2024/02/06 10:39:29;;;;;;;1.75;1.42;;;12.90;86.00;;;;;;5029204;28;20029;-63
2024/02/06 10:42:00;;;;;;;4.75;1.55;;;12.80;86.00;;;;;;5058480;28;20029;-62
2024/02/06 10:44:28;;;;;;;2.78;1.38;;;12.90;86.00;;;;;;5029254;28;20033;-62
2024/02/06 10:47:04;;;;;;;7.70;2.40;;;12.90;85.90;;;;;;5030488;28;20435;-66
2024/02/06 10:49:31;;;;;;;10.43;2.17;;;12.90;85.90;;;;;;5020993;28;20496;-66
2024/02/06 10:52:07;;;;;;;5.13;2.47;;;13.00;85.80;;;;;;5024561;28;20021;-66
2024/02/06 10:54:37;;;;;;;14.30;3.15;;;13.00;85.70;;;;;;5021943;28;20125;-66
2024/02/06 10:57:08;;;;;;;4.22;1.85;;;13.00;85.40;;;;;;5017253;28;20026;-66
2024/02/06 10:59:39;;;;;;;5.00;1.92;;;13.00;85.50;;;;;;5050697;28;20065;-66
2024/02/06 11:02:44;;;;;;;2.58;1.73;;;13.10;85.10;;;;;;5017756;28;20022;-66
2024/02/06 11:05:26;;;;;;;4.55;2.00;;;13.10;85.20;;;;;;5024048;28;20049;-66
2024/02/06 11:08:01;;;;;;;11.73;1.85;;;13.10;85.00;;;;;;5035345;28;20072;-67
2024/02/06 11:10:38;;;;;;;8.73;1.38;;;13.20;84.50;;;;;;5049225;28;20124;-66
2024/02/06 11:13:07;;;;;;;8.30;1.70;;;13.30;84.20;;;;;;5011421;28;20037;-66
2024/02/06 11:15:38;;;;;;;6.72;2.30;;;13.30;84.00;;;;;;5015482;28;20309;-66
2024/02/06 11:18:10;;;;;;;10.25;2.28;;;13.40;83.80;;;;;;5013356;28;20052;-67
2024/02/06 11:20:39;;;;;;;7.40;1.90;;;13.40;83.50;;;;;;5010632;28;20044;-66
2024/02/06 11:23:07;;;;;;;2.55;1.63;;;13.40;83.10;;;;;;5018602;28;20072;-66
2024/02/06 11:25:35;;;;;;;3.53;1.27;;;13.50;83.30;;;;;;5023652;28;20056;-66
2024/02/06 11:28:03;;;;;;;7.72;1.60;;;13.50;83.20;;;;;;5030609;28;20060;-66
2024/02/06 11:30:31;;;;;;;6.20;2.03;;;13.50;83.00;;;;;;5029573;28;20033;-67
2024/02/06 11:33:14;;;;;;;4.50;1.60;;;13.50;83.10;;;;;;5034696;28;20053;-66
2024/02/06 11:35:41;;;;;;;4.80;1.17;;;13.50;83.20;;;;;;5032640;28;20454;-67
2024/02/06 11:38:07;;;;;;;5.32;1.65;;;13.50;83.10;;;;;;5053076;28;20424;-62
2024/02/06 11:40:33;;;;;;;4.10;1.88;;;13.40;83.20;;;;;;5020402;28;20064;-62
2024/02/06 11:43:06;;;;;;;9.60;2.03;;;13.40;83.30;;;;;;5026725;28;20456;-62
2024/02/06 11:45:37;;;;;;;5.75;1.50;;;13.40;83.20;;;;;;5027262;28;20264;-62
2024/02/06 11:48:05;;;;;;;4.03;1.40;;;13.50;83.00;;;;;;5027872;28;20727;-66
2024/02/06 11:50:41;;;;;;;2.17;1.35;;;13.50;83.00;;;;;;5060344;28;20072;-63
2024/02/06 11:53:14;;;;;;;3.60;1.52;;;13.40;82.80;;;;;;5028655;28;20031;-62
2024/02/06 11:55:46;;;;;;;3.85;1.25;;;13.50;83.00;;;;;;5027389;28;20036;-64
2024/02/06 11:58:13;;;;;;;;;;;13.50;83.00;;;;;;5032152;28;20361;-64
2024/02/06 12:00:39;;;;;;;10.88;1.55;;;13.50;83.10;;;;;;5029330;28;20279;-64
2024/02/06 12:03:05;;;;;;;3.45;1.35;;;13.50;83.10;;;;;;5032227;28;20030;-64
2024/02/06 12:05:41;;;;;;;1.55;1.40;;;13.50;83.00;;;;;;5029571;28;20473;-64
2024/02/06 12:08:08;;;;;;;4.93;1.38;;;13.50;82.50;;;;;;5030331;28;20029;-63
2024/02/06 12:10:34;;;;;;;1.42;1.23;;;13.50;82.20;;;;;;5027566;28;20044;-63
2024/02/06 12:13:03;;;;;;;6.65;1.48;;;13.50;81.90;;;;;;5029633;28;20045;-61
2024/02/06 12:15:30;;;;;;;4.10;1.70;;;13.40;81.80;;;;;;5025770;28;20033;-62
2024/02/06 12:17:56;;;;;;;1.17;0.85;;;13.50;81.80;;;;;;5033275;28;20025;-62
2024/02/06 12:20:23;;;;;;;6.43;1.52;;;13.50;81.80;;;;;;5023420;28;20148;-62
2024/02/06 12:22:57;;;;;;;4.97;1.52;;;13.50;81.70;;;;;;5029419;28;20360;-62
2024/02/06 12:25:23;;;;;;;2.50;1.00;;;13.50;81.30;;;;;;5024226;28;20037;-62
2024/02/06 12:28:12;;;;;;;7.80;1.58;;;13.50;81.30;;;;;;5020183;28;20108;-61
2024/02/06 12:30:44;;;;;;;2.30;1.30;;;13.60;80.80;;;;;;5025996;28;20175;-62
2024/02/06 12:33:10;;;;;;;2.13;1.15;;;13.60;80.90;;;;;;5028704;28;20017;-67
2024/02/06 12:35:38;;;;;;;1.90;0.98;;;13.60;80.80;;;;;;5026846;28;20518;-67
2024/02/06 12:38:04;;;;;;;4.38;1.08;;;13.50;80.80;;;;;;5024710;28;20163;-67
2024/02/06 12:40:32;;;;;;;2.40;1.50;;;13.60;80.90;;;;;;5030915;28;20040;-66
2024/02/06 12:43:05;;;;;;;5.82;1.48;;;13.60;80.70;;;;;;5032279;28;20444;-67